This is the latest recevied weather packets stored in our database for station/object F5BSF-11. If no packets are shown the sender has not sent any weather packets the latest 10 day(s).
| Time | Temp. | Humidity | Pressure | Rain* | Wind** | Luminosity | Snow |
|---|---|---|---|---|---|---|---|
| 1777874707 | 21.11° C | 52% | 994 hPa | - | - | - | - |
| 1777873807 | 21.11° C | 52% | 993.7 hPa | - | - | - | - |
| 1777872907 | 21.11° C | 52% | 993.6 hPa | - | - | - | - |
| 1777872007 | 21.67° C | 53% | 993.5 hPa | - | - | - | - |
| 1777871107 | 21.67° C | 54% | 993.6 hPa | - | - | - | - |
| 1777870207 | 21.67° C | 54% | 993.5 hPa | - | - | - | - |
| 1777869307 | 21.67° C | 51% | 993.3 hPa | - | - | - | - |
| 1777868407 | 21.67° C | 50% | 993.1 hPa | - | - | - | - |
| 1777867507 | 21.67° C | 50% | 993.3 hPa | - | - | - | - |
| 1777842304 | 22.22° C | 49% | 994.1 hPa | - | - | - | - |
| 1777841404 | 22.22° C | 49% | 994.3 hPa | - | - | - | - |
| 1777835103 | 22.22° C | 48% | 992.8 hPa | - | - | - | - |
| 1777834203 | 22.22° C | 48% | 992.8 hPa | - | - | - | - |
| 1777833303 | 22.22° C | 48% | 992.6 hPa | - | - | - | - |
| 1777832403 | 22.22° C | 48% | 992.6 hPa | - | - | - | - |
| 1777826300 | 22.78° C | 45% | 992.8 hPa | - | - | - | - |
| 1777818433 | 23.33° C | 46% | 993.4 hPa | - | - | - | - |
| 1777810725 | 22.22° C | 51% | 994.5 hPa | - | - | - | - |
| 1777809825 | 22.22° C | 52% | 994.6 hPa | - | - | - | - |
| 1777808925 | 21.67° C | 52% | 994.9 hPa | - | - | - | - |
| 1777805324 | 21.67° C | 53% | 995.6 hPa | - | - | - | - |
| 1777800823 | 22.22° C | 49% | 995.8 hPa | - | - | - | - |
| 1777799923 | 22.22° C | 49% | 995.9 hPa | - | - | - | - |
| 1777799022 | 21.67° C | 50% | 996 hPa | - | - | - | - |
| 1777798121 | 20.56° C | 55% | 996 hPa | - | - | - | - |
* Rain since midnight (hover to see other rain measurements)
** Current wind speed in m/s (hover to see current wind gust speed)